Thursday, August 16, 2018, 1:57 AM EDT
Back to Local

KGSB, Seymour-johnson Air Force Base

Location: Goldsboro, NC, United States Lat: 35.333
Local Time: 1:57 AM EDT ( 5:57 GMT) Lon: -77.967
Time Zone: US/Eastern Elev: 108 ft

Show me the last for .
Show Decoded

2018-08-15 23:56 METAR KGSB 160356Z AUTO 14003KT 10SM CLR 25/21 A3007 RMK AO2 SLPNO T02450214 $ =
2018-08-15 22:56 METAR KGSB 160256Z AUTO 14005KT 10SM CLR 26/22 A3008 RMK AO2 SLPNO T02560221
                 52018 $ =
2018-08-15 21:56 METAR KGSB 160156Z AUTO 17003KT 10SM SCT075 26/23 A3007 RMK AO2 SLPNO T02630229
                 $ =
2018-08-15 20:56 METAR KGSB 160056Z AUTO 00000KT 10SM FEW070 SCT100 27/22 A3005 RMK AO2 SLP178
                 T02680222 $ =
2018-08-15 19:56 METAR KGSB 152356Z AUTO 00000KT 10SM CLR 28/23 A3003 RMK AO2 SLP171 T02830232
                 10335 20283 53006 $ =
2018-08-15 18:56 METAR KGSB 152256Z AUTO 28004KT 10SM CLR 31/20 A3001 RMK AO2 SLP164 T03080204 $
                 =
2018-08-15 17:56 METAR KGSB 152156Z AUTO 25006KT 10SM CLR 32/20 A3001 RMK AO2 SLP164 T03210200 $
                 =
2018-08-15 16:56 METAR KGSB 152056Z AUTO 25008KT 10SM CLR 33/19 A3001 RMK AO2 SLP164 T03290194
                 56009 $ =
2018-08-15 15:56 METAR KGSB 151956Z AUTO 25005KT 10SM CLR 33/19 A3001 RMK AO2 SLP164 T03300191 $
                 =
2018-08-15 14:56 METAR KGSB 151856Z AUTO 23009KT 10SM FEW050 33/21 A3002 RMK AO2 SLP168 T03330208
                 $ =
2018-08-15 13:56 METAR KGSB 151756Z AUTO 22005KT 10SM FEW190 32/21 A3004 RMK AO2 SLP175 T03180210
                 10318 20227 $ =
2018-08-15 12:56 METAR KGSB 151656Z AUTO 00000KT 10SM CLR 31/22 A3005 RMK AO2 SLP178 T03140218 $
                 =
2018-08-15 11:56 METAR KGSB 151556Z AUTO 00000KT 10SM CLR 31/23 A3006 RMK AO2 SLP181 T03100231 $
                 =
2018-08-15 10:56 METAR KGSB 151456Z AUTO 00000KT 10SM CLR 29/24 A3007 RMK AO2 SLP185 T02870238
                 52012 $ =
2018-08-15 09:56 METAR KGSB 151356Z AUTO 00000KT 9SM CLR 26/24 A3006 RMK AO2 SLP181 T02630237 $ =
2018-08-15 09:21 METAR KGSB 151321Z 00000KT 5SM BR FEW005 FEW250 25/24 A3005 RMK SLP178 $ =
2018-08-15 09:08 METAR KGSB 151308Z 00000KT 5SM BR SCT005 24/23 A3005 RMK SLP178 $ =
2018-08-15 08:56 METAR KGSB 151256Z 25004KT 2SM BR SCT002 BKN005 23/23 A3005 RMK AO2A SLP178
                 T02330228 $ =
2018-08-15 08:10 METAR KGSB 151210Z 25006KT 1 1/2SM BR SCT003 OVC005 23/23 A3004 RMK OVC V BKN
                 SLP175 $ =
2018-08-15 07:56 METAR KGSB 151156Z AUTO 24004KT 7SM BKN005 23/22 A3003 RMK AO2 BKN V SCT CIG 004
                 RWY08 SLP171 70014 T02270222 10227 20215 52017 $ =
2018-08-15 07:53 METAR KGSB 151153Z AUTO 24004KT 7SM BKN005 23/22 A3003 RMK AO2 BKN V FEW CIG 004
                 RWY08 SLP171 $ =
2018-08-15 06:56 METAR KGSB 151056Z AUTO 00000KT 8SM CLR 22/22 A3002 RMK AO2 SLP168 T02200215 $ =
2018-08-15 05:56 METAR KGSB 150956Z AUTO 19003KT 6SM BR CLR 22/21 A2999 RMK AO2 SLP158 T02170210
                 $ =
2018-08-15 04:56 METAR KGSB 150856Z AUTO 22003KT 7SM CLR 22/21 A2998 RMK AO2 SLP154 T02190210
                 57009 $ =
2018-08-15 03:56 METAR KGSB 150756Z AUTO 00000KT 10SM CLR 22/21 A2999 RMK AO2 SLP158 T02220212 $
                 =
2018-08-15 02:56 METAR KGSB 150656Z AUTO 00000KT 10SM CLR 22/21 A2999 RMK AO2 SLP158 T02220213 $
                 =

Support USWX by starting your Amazon purchase here.